sensor_id;sensor_type;location;lat;lon;timestamp;temperature;humidity
39655;DHT22;25336;59.944;11.010;2022-12-18T00:02:14;-0.40;73.10
39655;DHT22;25336;59.944;11.010;2022-12-18T00:04:40;-0.40;73.10
39655;DHT22;25336;59.944;11.010;2022-12-18T00:07:06;1.00;74.00
39655;DHT22;25336;59.944;11.010;2022-12-18T00:09:31;-0.30;73.20
39655;DHT22;25336;59.944;11.010;2022-12-18T00:11:57;-0.30;73.10
39655;DHT22;25336;59.944;11.010;2022-12-18T00:14:22;-0.30;73.20
39655;DHT22;25336;59.944;11.010;2022-12-18T00:16:48;-0.30;73.10
39655;DHT22;25336;59.944;11.010;2022-12-18T00:19:14;-0.10;73.10
39655;DHT22;25336;59.944;11.010;2022-12-18T00:21:41;-0.30;72.90
39655;DHT22;25336;59.944;11.010;2022-12-18T00:24:06;-0.30;73.60
39655;DHT22;25336;59.944;11.010;2022-12-18T00:26:33;-0.30;72.80
39655;DHT22;25336;59.944;11.010;2022-12-18T00:29:05;-0.30;72.80
39655;DHT22;25336;59.944;11.010;2022-12-18T00:31:32;-0.40;72.80
39655;DHT22;25336;59.944;11.010;2022-12-18T00:33:58;-0.40;73.00
39655;DHT22;25336;59.944;11.010;2022-12-18T00:36:27;-0.40;73.00
39655;DHT22;25336;59.944;11.010;2022-12-18T00:38:55;-0.30;73.00
39655;DHT22;25336;59.944;11.010;2022-12-18T00:41:21;-0.40;73.10
39655;DHT22;25336;59.944;11.010;2022-12-18T00:44:07;-0.40;73.10
39655;DHT22;25336;59.944;11.010;2022-12-18T00:46:33;-0.40;73.20
39655;DHT22;25336;59.944;11.010;2022-12-18T00:48:59;-0.40;73.20
39655;DHT22;25336;59.944;11.010;2022-12-18T00:51:25;-0.40;73.30
39655;DHT22;25336;59.944;11.010;2022-12-18T00:53:51;-0.40;73.40
39655;DHT22;25336;59.944;11.010;2022-12-18T00:56:16;-0.30;73.40
39655;DHT22;25336;59.944;11.010;2022-12-18T00:58:42;-0.40;74.20
39655;DHT22;25336;59.944;11.010;2022-12-18T01:01:07;-0.40;73.40
39655;DHT22;25336;59.944;11.010;2022-12-18T01:03:34;-0.30;73.50
39655;DHT22;25336;59.944;11.010;2022-12-18T01:06:04;-0.30;73.50
39655;DHT22;25336;59.944;11.010;2022-12-18T01:08:30;-0.30;73.50
39655;DHT22;25336;59.944;11.010;2022-12-18T01:10:55;1.50;74.70
39655;DHT22;25336;59.944;11.010;2022-12-18T01:13:21;-0.20;73.60
39655;DHT22;25336;59.944;11.010;2022-12-18T01:15:50;0.10;73.80
39655;DHT22;25336;59.944;11.010;2022-12-18T01:18:16;-0.20;73.60
39655;DHT22;25336;59.944;11.010;2022-12-18T01:20:41;-0.20;73.60
39655;DHT22;25336;59.944;11.010;2022-12-18T01:23:07;-0.20;73.70
39655;DHT22;25336;59.944;11.010;2022-12-18T01:25:33;-0.10;73.70
39655;DHT22;25336;59.944;11.010;2022-12-18T01:27:58;-0.10;73.80
39655;DHT22;25336;59.944;11.010;2022-12-18T01:30:24;-0.10;73.70
39655;DHT22;25336;59.944;11.010;2022-12-18T01:32:49;-0.10;73.70
39655;DHT22;25336;59.944;11.010;2022-12-18T01:35:15;0.00;73.80
39655;DHT22;25336;59.944;11.010;2022-12-18T01:37:41;0.00;73.90
39655;DHT22;25336;59.944;11.010;2022-12-18T01:40:07;0.00;74.00
39655;DHT22;25336;59.944;11.010;2022-12-18T01:42:32;0.10;74.20
39655;DHT22;25336;59.944;11.010;2022-12-18T01:47:54;0.30;77.00
39655;DHT22;25336;59.944;11.010;2022-12-18T01:50:21;0.40;78.10
39655;DHT22;25336;59.944;11.010;2022-12-18T01:52:56;0.60;79.10
39655;DHT22;25336;59.944;11.010;2022-12-18T01:55:27;0.80;79.80
39655;DHT22;25336;59.944;11.010;2022-12-18T01:57:55;1.00;80.20
39655;DHT22;25336;59.944;11.010;2022-12-18T02:00:22;1.20;80.50
39655;DHT22;25336;59.944;11.010;2022-12-18T02:02:49;1.40;80.50
39655;DHT22;25336;59.944;11.010;2022-12-18T02:05:23;1.60;80.90
39655;DHT22;25336;59.944;11.010;2022-12-18T02:08:10;2.30;81.10
39655;DHT22;25336;59.944;11.010;2022-12-18T02:11:00;2.00;81.00
39655;DHT22;25336;59.944;11.010;2022-12-18T02:16:28;2.30;81.80
39655;DHT22;25336;59.944;11.010;2022-12-18T02:19:02;2.40;81.20
39655;DHT22;25336;59.944;11.010;2022-12-18T02:22:00;2.50;81.30
39655;DHT22;25336;59.944;11.010;2022-12-18T02:24:42;2.70;81.80
39655;DHT22;25336;59.944;11.010;2022-12-18T02:27:10;2.80;81.20
39655;DHT22;25336;59.944;11.010;2022-12-18T02:29:44;2.90;81.00
39655;DHT22;25336;59.944;11.010;2022-12-18T02:32:20;3.00;81.10
39655;DHT22;25336;59.944;11.010;2022-12-18T02:34:48;3.80;81.60
39655;DHT22;25336;59.944;11.010;2022-12-18T02:37:18;3.10;80.80
39655;DHT22;25336;59.944;11.010;2022-12-18T02:39:45;2.60;80.30
39655;DHT22;25336;59.944;11.010;2022-12-18T02:42:12;3.30;80.80
39655;DHT22;25336;59.944;11.010;2022-12-18T02:44:49;3.30;80.60
39655;DHT22;25336;59.944;11.010;2022-12-18T02:47:17;3.40;80.80
39655;DHT22;25336;59.944;11.010;2022-12-18T02:55:50;3.60;80.70
39655;DHT22;25336;59.944;11.010;2022-12-18T02:58:29;3.60;80.70
39655;DHT22;25336;59.944;11.010;2022-12-18T03:03:50;3.70;80.10
39655;DHT22;25336;59.944;11.010;2022-12-18T03:09:00;3.80;80.20
39655;DHT22;25336;59.944;11.010;2022-12-18T03:11:31;3.80;80.10
39655;DHT22;25336;59.944;11.010;2022-12-18T03:14:17;3.90;80.20
39655;DHT22;25336;59.944;11.010;2022-12-18T03:16:47;5.60;81.00
39655;DHT22;25336;59.944;11.010;2022-12-18T03:19:18;3.90;79.90
39655;DHT22;25336;59.944;11.010;2022-12-18T03:21:49;4.80;80.40
39655;DHT22;25336;59.944;11.010;2022-12-18T03:24:16;3.90;79.70
39655;DHT22;25336;59.944;11.010;2022-12-18T03:26:46;4.10;79.80
39655;DHT22;25336;59.944;11.010;2022-12-18T03:29:17;4.00;79.60
39655;DHT22;25336;59.944;11.010;2022-12-18T03:31:59;4.70;80.10
39655;DHT22;25336;59.944;11.010;2022-12-18T03:34:30;4.00;79.70
39655;DHT22;25336;59.944;11.010;2022-12-18T03:36:57;4.00;79.50
39655;DHT22;25336;59.944;11.010;2022-12-18T03:39:23;5.20;80.10
39655;DHT22;25336;59.944;11.010;2022-12-18T03:44:52;4.80;80.10
39655;DHT22;25336;59.944;11.010;2022-12-18T03:49:57;4.20;79.40
39655;DHT22;25336;59.944;11.010;2022-12-18T03:52:38;4.20;79.30
39655;DHT22;25336;59.944;11.010;2022-12-18T03:55:07;4.20;79.40
39655;DHT22;25336;59.944;11.010;2022-12-18T03:57:35;4.20;79.30
39655;DHT22;25336;59.944;11.010;2022-12-18T04:00:08;4.20;79.00
39655;DHT22;25336;59.944;11.010;2022-12-18T04:02:34;4.20;78.90
39655;DHT22;25336;59.944;11.010;2022-12-18T04:05:04;4.20;78.90
39655;DHT22;25336;59.944;11.010;2022-12-18T04:07:31;4.20;78.80
39655;DHT22;25336;59.944;11.010;2022-12-18T04:09:59;4.20;78.70
39655;DHT22;25336;59.944;11.010;2022-12-18T04:12:26;4.20;78.60
39655;DHT22;25336;59.944;11.010;2022-12-18T04:14:51;4.20;78.50
39655;DHT22;25336;59.944;11.010;2022-12-18T04:17:17;4.20;78.50
39655;DHT22;25336;59.944;11.010;2022-12-18T04:19:43;4.30;78.50
39655;DHT22;25336;59.944;11.010;2022-12-18T04:22:10;4.20;78.30
39655;DHT22;25336;59.944;11.010;2022-12-18T04:24:36;4.30;78.40
39655;DHT22;25336;59.944;11.010;2022-12-18T04:27:01;4.20;78.30
39655;DHT22;25336;59.944;11.010;2022-12-18T04:29:27;4.20;78.30
39655;DHT22;25336;59.944;11.010;2022-12-18T04:31:53;4.20;78.30
39655;DHT22;25336;59.944;11.010;2022-12-18T04:34:20;4.20;78.30
39655;DHT22;25336;59.944;11.010;2022-12-18T04:36:45;4.30;78.30
39655;DHT22;25336;59.944;11.010;2022-12-18T04:39:11;4.70;78.60
39655;DHT22;25336;59.944;11.010;2022-12-18T04:41:37;4.30;78.20
39655;DHT22;25336;59.944;11.010;2022-12-18T04:44:03;4.30;78.30
39655;DHT22;25336;59.944;11.010;2022-12-18T04:46:29;4.30;78.40
39655;DHT22;25336;59.944;11.010;2022-12-18T04:48:54;4.30;78.30
39655;DHT22;25336;59.944;11.010;2022-12-18T04:51:20;4.30;78.10
39655;DHT22;25336;59.944;11.010;2022-12-18T04:53:45;4.30;78.00
39655;DHT22;25336;59.944;11.010;2022-12-18T04:56:15;4.30;78.10
39655;DHT22;25336;59.944;11.010;2022-12-18T04:58:42;4.30;78.10
39655;DHT22;25336;59.944;11.010;2022-12-18T05:01:08;4.30;77.90
39655;DHT22;25336;59.944;11.010;2022-12-18T05:03:34;4.30;77.80
39655;DHT22;25336;59.944;11.010;2022-12-18T05:06:00;4.30;77.80
39655;DHT22;25336;59.944;11.010;2022-12-18T05:08:26;4.30;77.70
39655;DHT22;25336;59.944;11.010;2022-12-18T05:10:59;4.30;77.60
39655;DHT22;25336;59.944;11.010;2022-12-18T05:13:25;4.30;77.80
39655;DHT22;25336;59.944;11.010;2022-12-18T05:15:52;4.80;78.00
39655;DHT22;25336;59.944;11.010;2022-12-18T05:18:17;3.00;76.80
39655;DHT22;25336;59.944;11.010;2022-12-18T05:20:43;4.20;77.60
39655;DHT22;25336;59.944;11.010;2022-12-18T05:23:09;4.20;77.40
39655;DHT22;25336;59.944;11.010;2022-12-18T05:25:34;3.00;76.80
39655;DHT22;25336;59.944;11.010;2022-12-18T05:28:00;4.20;77.60
39655;DHT22;25336;59.944;11.010;2022-12-18T05:30:25;4.20;77.60
39655;DHT22;25336;59.944;11.010;2022-12-18T05:32:51;4.20;77.60
39655;DHT22;25336;59.944;11.010;2022-12-18T05:35:17;4.20;77.70
39655;DHT22;25336;59.944;11.010;2022-12-18T05:37:42;4.30;77.70
39655;DHT22;25336;59.944;11.010;2022-12-18T05:40:08;4.20;77.70
39655;DHT22;25336;59.944;11.010;2022-12-18T05:42:34;4.20;77.60
39655;DHT22;25336;59.944;11.010;2022-12-18T05:44:59;4.10;77.60
39655;DHT22;25336;59.944;11.010;2022-12-18T05:47:27;4.10;77.70
39655;DHT22;25336;59.944;11.010;2022-12-18T05:49:53;4.10;77.60
39655;DHT22;25336;59.944;11.010;2022-12-18T05:52:18;4.10;77.60
39655;DHT22;25336;59.944;11.010;2022-12-18T05:54:44;4.10;77.50
39655;DHT22;25336;59.944;11.010;2022-12-18T05:57:10;5.10;78.20
39655;DHT22;25336;59.944;11.010;2022-12-18T05:59:35;4.10;77.60
39655;DHT22;25336;59.944;11.010;2022-12-18T06:02:01;4.10;77.60
39655;DHT22;25336;59.944;11.010;2022-12-18T06:04:30;4.10;77.40
39655;DHT22;25336;59.944;11.010;2022-12-18T06:06:56;4.10;77.30
39655;DHT22;25336;59.944;11.010;2022-12-18T06:09:21;4.00;77.20
39655;DHT22;25336;59.944;11.010;2022-12-18T06:11:47;4.00;77.30
39655;DHT22;25336;59.944;11.010;2022-12-18T06:14:14;4.00;77.20
39655;DHT22;25336;59.944;11.010;2022-12-18T06:16:42;4.00;77.10
39655;DHT22;25336;59.944;11.010;2022-12-18T06:19:12;2.60;76.30
39655;DHT22;25336;59.944;11.010;2022-12-18T06:21:39;4.00;77.10
39655;DHT22;25336;59.944;11.010;2022-12-18T06:24:04;3.90;77.10
39655;DHT22;25336;59.944;11.010;2022-12-18T06:26:30;3.90;78.10
39655;DHT22;25336;59.944;11.010;2022-12-18T06:28:59;3.90;77.40
39655;DHT22;25336;59.944;11.010;2022-12-18T06:31:25;3.90;77.40
39655;DHT22;25336;59.944;11.010;2022-12-18T06:33:51;3.90;77.40
39655;DHT22;25336;59.944;11.010;2022-12-18T06:36:16;3.90;77.80
39655;DHT22;25336;59.944;11.010;2022-12-18T06:38:43;5.20;78.30
39655;DHT22;25336;59.944;11.010;2022-12-18T06:41:15;3.90;77.30
39655;DHT22;25336;59.944;11.010;2022-12-18T06:43:41;3.80;77.50
39655;DHT22;25336;59.944;11.010;2022-12-18T06:46:07;3.80;77.50
39655;DHT22;25336;59.944;11.010;2022-12-18T06:48:33;3.80;77.70
39655;DHT22;25336;59.944;11.010;2022-12-18T06:50:59;3.80;77.60
39655;DHT22;25336;59.944;11.010;2022-12-18T06:53:25;3.80;77.60
39655;DHT22;25336;59.944;11.010;2022-12-18T06:55:51;3.90;77.50
39655;DHT22;25336;59.944;11.010;2022-12-18T06:58:17;3.90;77.70
39655;DHT22;25336;59.944;11.010;2022-12-18T07:00:42;3.80;77.40
39655;DHT22;25336;59.944;11.010;2022-12-18T07:03:08;3.90;77.30
39655;DHT22;25336;59.944;11.010;2022-12-18T07:05:34;3.80;77.30
39655;DHT22;25336;59.944;11.010;2022-12-18T07:07:59;4.90;77.80
39655;DHT22;25336;59.944;11.010;2022-12-18T07:10:26;3.80;77.00
39655;DHT22;25336;59.944;11.010;2022-12-18T07:12:52;3.80;76.80
39655;DHT22;25336;59.944;11.010;2022-12-18T07:15:17;4.90;77.50
39655;DHT22;25336;59.944;11.010;2022-12-18T07:17:43;3.80;76.70
39655;DHT22;25336;59.944;11.010;2022-12-18T07:20:09;3.70;76.70
39655;DHT22;25336;59.944;11.010;2022-12-18T07:22:35;3.70;76.70
39655;DHT22;25336;59.944;11.010;2022-12-18T07:25:00;3.60;76.70
39655;DHT22;25336;59.944;11.010;2022-12-18T07:27:26;3.60;76.90
39655;DHT22;25336;59.944;11.010;2022-12-18T07:29:51;4.60;77.50
39655;DHT22;25336;59.944;11.010;2022-12-18T07:32:17;3.60;76.80
39655;DHT22;25336;59.944;11.010;2022-12-18T07:34:42;3.60;76.80
39655;DHT22;25336;59.944;11.010;2022-12-18T07:37:08;3.60;77.00
39655;DHT22;25336;59.944;11.010;2022-12-18T07:39:34;3.80;77.20
39655;DHT22;25336;59.944;11.010;2022-12-18T07:41:59;4.40;77.70
39655;DHT22;25336;59.944;11.010;2022-12-18T07:44:44;3.50;76.80
39655;DHT22;25336;59.944;11.010;2022-12-18T07:47:09;3.50;76.80
39655;DHT22;25336;59.944;11.010;2022-12-18T07:49:35;3.50;76.90
39655;DHT22;25336;59.944;11.010;2022-12-18T07:52:00;3.50;76.90
39655;DHT22;25336;59.944;11.010;2022-12-18T07:54:27;3.40;76.90
39655;DHT22;25336;59.944;11.010;2022-12-18T07:56:52;3.40;76.90
39655;DHT22;25336;59.944;11.010;2022-12-18T07:59:18;1.90;76.00
39655;DHT22;25336;59.944;11.010;2022-12-18T08:01:44;2.70;76.80
39655;DHT22;25336;59.944;11.010;2022-12-18T08:04:10;3.40;77.20
39655;DHT22;25336;59.944;11.010;2022-12-18T08:06:35;3.40;77.30
39655;DHT22;25336;59.944;11.010;2022-12-18T08:09:02;3.30;77.30
39655;DHT22;25336;59.944;11.010;2022-12-18T08:11:28;3.30;77.30
39655;DHT22;25336;59.944;11.010;2022-12-18T08:13:54;3.30;77.20
39655;DHT22;25336;59.944;11.010;2022-12-18T08:16:21;4.30;77.80
39655;DHT22;25336;59.944;11.010;2022-12-18T08:18:47;3.30;77.50
39655;DHT22;25336;59.944;11.010;2022-12-18T08:21:18;3.30;77.60
39655;DHT22;25336;59.944;11.010;2022-12-18T08:23:46;3.30;77.40
39655;DHT22;25336;59.944;11.010;2022-12-18T08:26:12;3.30;77.70
39655;DHT22;25336;59.944;11.010;2022-12-18T08:28:37;3.20;77.60
39655;DHT22;25336;59.944;11.010;2022-12-18T08:31:03;3.20;77.60
39655;DHT22;25336;59.944;11.010;2022-12-18T08:33:29;3.30;77.70
39655;DHT22;25336;59.944;11.010;2022-12-18T08:35:55;3.30;77.70
39655;DHT22;25336;59.944;11.010;2022-12-18T08:38:20;4.50;78.40
39655;DHT22;25336;59.944;11.010;2022-12-18T08:40:46;3.30;77.70
39655;DHT22;25336;59.944;11.010;2022-12-18T08:43:12;3.30;77.60
39655;DHT22;25336;59.944;11.010;2022-12-18T08:45:56;3.30;77.60
39655;DHT22;25336;59.944;11.010;2022-12-18T08:48:22;3.30;77.60
39655;DHT22;25336;59.944;11.010;2022-12-18T08:50:58;3.30;77.70
39655;DHT22;25336;59.944;11.010;2022-12-18T08:53:24;3.30;77.70
39655;DHT22;25336;59.944;11.010;2022-12-18T08:55:49;3.30;77.60
39655;DHT22;25336;59.944;11.010;2022-12-18T08:58:15;3.30;77.60
39655;DHT22;25336;59.944;11.010;2022-12-18T09:00:41;3.30;77.60
39655;DHT22;25336;59.944;11.010;2022-12-18T09:03:12;3.30;77.60
39655;DHT22;25336;59.944;11.010;2022-12-18T09:05:38;3.30;77.80
39655;DHT22;25336;59.944;11.010;2022-12-18T09:08:03;4.30;78.30
39655;DHT22;25336;59.944;11.010;2022-12-18T09:10:29;3.30;77.60
39655;DHT22;25336;59.944;11.010;2022-12-18T09:12:54;3.30;77.60
39655;DHT22;25336;59.944;11.010;2022-12-18T09:15:21;3.40;77.70
39655;DHT22;25336;59.944;11.010;2022-12-18T09:17:47;3.40;77.60
39655;DHT22;25336;59.944;11.010;2022-12-18T09:20:13;3.30;77.40
39655;DHT22;25336;59.944;11.010;2022-12-18T09:22:39;3.30;77.30
39655;DHT22;25336;59.944;11.010;2022-12-18T09:25:05;3.40;77.30
39655;DHT22;25336;59.944;11.010;2022-12-18T09:27:33;3.30;77.10
39655;DHT22;25336;59.944;11.010;2022-12-18T09:29:59;3.30;78.10
39655;DHT22;25336;59.944;11.010;2022-12-18T09:32:25;3.30;77.40
39655;DHT22;25336;59.944;11.010;2022-12-18T09:34:51;3.40;77.40
39655;DHT22;25336;59.944;11.010;2022-12-18T09:37:16;3.30;77.30
39655;DHT22;25336;59.944;11.010;2022-12-18T09:39:42;3.40;77.30
39655;DHT22;25336;59.944;11.010;2022-12-18T09:42:20;3.40;77.20
39655;DHT22;25336;59.944;11.010;2022-12-18T09:44:50;3.40;77.10
39655;DHT22;25336;59.944;11.010;2022-12-18T09:47:37;3.40;76.90
39655;DHT22;25336;59.944;11.010;2022-12-18T09:50:05;3.40;76.90
39655;DHT22;25336;59.944;11.010;2022-12-18T09:52:43;3.40;77.60
39655;DHT22;25336;59.944;11.010;2022-12-18T09:55:30;3.40;76.90
39655;DHT22;25336;59.944;11.010;2022-12-18T09:58:06;3.40;76.80
39655;DHT22;25336;59.944;11.010;2022-12-18T10:00:37;3.30;76.60
39655;DHT22;25336;59.944;11.010;2022-12-18T10:03:09;3.40;76.60
39655;DHT22;25336;59.944;11.010;2022-12-18T10:08:17;3.30;76.50
39655;DHT22;25336;59.944;11.010;2022-12-18T10:10:55;3.30;76.50
39655;DHT22;25336;59.944;11.010;2022-12-18T10:19:43;3.30;76.50
39655;DHT22;25336;59.944;11.010;2022-12-18T10:25:29;3.30;76.60
39655;DHT22;25336;59.944;11.010;2022-12-18T10:28:10;3.30;76.80
39655;DHT22;25336;59.944;11.010;2022-12-18T10:30:39;3.30;77.10
39655;DHT22;25336;59.944;11.010;2022-12-18T10:33:04;3.30;77.10
39655;DHT22;25336;59.944;11.010;2022-12-18T10:35:30;3.30;77.20
39655;DHT22;25336;59.944;11.010;2022-12-18T10:40:32;2.80;76.90
39655;DHT22;25336;59.944;11.010;2022-12-18T10:43:37;3.30;77.10
39655;DHT22;25336;59.944;11.010;2022-12-18T10:56:21;3.40;76.80
39655;DHT22;25336;59.944;11.010;2022-12-18T10:58:57;3.40;76.80
39655;DHT22;25336;59.944;11.010;2022-12-18T11:01:23;4.30;77.40
39655;DHT22;25336;59.944;11.010;2022-12-18T11:06:22;4.80;77.70
39655;DHT22;25336;59.944;11.010;2022-12-18T11:09:01;3.40;76.80
39655;DHT22;25336;59.944;11.010;2022-12-18T11:11:28;3.50;76.80
39655;DHT22;25336;59.944;11.010;2022-12-18T11:14:00;3.40;76.70
39655;DHT22;25336;59.944;11.010;2022-12-18T11:16:27;3.50;76.70
39655;DHT22;25336;59.944;11.010;2022-12-18T11:18:53;3.50;76.70
39655;DHT22;25336;59.944;11.010;2022-12-18T11:21:20;3.50;76.60
39655;DHT22;25336;59.944;11.010;2022-12-18T11:23:53;3.50;76.40
39655;DHT22;25336;59.944;11.010;2022-12-18T11:26:19;3.50;76.20
39655;DHT22;25336;59.944;11.010;2022-12-18T11:29:09;3.50;76.00
39655;DHT22;25336;59.944;11.010;2022-12-18T11:31:36;3.50;75.80
39655;DHT22;25336;59.944;11.010;2022-12-18T11:36:46;3.50;75.30
39655;DHT22;25336;59.944;11.010;2022-12-18T11:39:27;3.50;75.30
39655;DHT22;25336;59.944;11.010;2022-12-18T11:42:12;3.50;75.10
39655;DHT22;25336;59.944;11.010;2022-12-18T11:44:59;3.40;75.10
39655;DHT22;25336;59.944;11.010;2022-12-18T11:50:57;3.60;75.40
39655;DHT22;25336;59.944;11.010;2022-12-18T11:53:03;3.40;75.40
39655;DHT22;25336;59.944;11.010;2022-12-18T12:01:12;3.30;75.60
39655;DHT22;25336;59.944;11.010;2022-12-18T12:09:26;3.30;75.60
39655;DHT22;25336;59.944;11.010;2022-12-18T12:17:08;3.40;76.10
39655;DHT22;25336;59.944;11.010;2022-12-18T12:20:27;3.30;76.00
39655;DHT22;25336;59.944;11.010;2022-12-18T12:33:50;4.90;76.70
39655;DHT22;25336;59.944;11.010;2022-12-18T12:36:21;3.40;75.80
39655;DHT22;25336;59.944;11.010;2022-12-18T12:38:52;3.40;75.50
39655;DHT22;25336;59.944;11.010;2022-12-18T12:41:23;3.40;75.40
39655;DHT22;25336;59.944;11.010;2022-12-18T12:44:14;3.40;75.40
39655;DHT22;25336;59.944;11.010;2022-12-18T12:46:42;3.40;75.20
39655;DHT22;25336;59.944;11.010;2022-12-18T12:49:17;3.30;75.00
39655;DHT22;25336;59.944;11.010;2022-12-18T12:51:45;3.30;74.90
39655;DHT22;25336;59.944;11.010;2022-12-18T12:54:23;3.30;74.90
39655;DHT22;25336;59.944;11.010;2022-12-18T13:02:58;3.20;74.80
39655;DHT22;25336;59.944;11.010;2022-12-18T13:05:49;3.20;74.80
39655;DHT22;25336;59.944;11.010;2022-12-18T13:08:30;3.20;74.70
39655;DHT22;25336;59.944;11.010;2022-12-18T13:10:57;3.10;74.60
39655;DHT22;25336;59.944;11.010;2022-12-18T13:13:56;3.10;74.60
39655;DHT22;25336;59.944;11.010;2022-12-18T13:16:24;3.10;74.70
39655;DHT22;25336;59.944;11.010;2022-12-18T13:18:57;3.10;74.80
39655;DHT22;25336;59.944;11.010;2022-12-18T13:21:29;3.00;74.70
39655;DHT22;25336;59.944;11.010;2022-12-18T13:23:56;3.00;74.70
39655;DHT22;25336;59.944;11.010;2022-12-18T13:28:52;3.00;74.60
39655;DHT22;25336;59.944;11.010;2022-12-18T13:34:21;2.90;74.60
39655;DHT22;25336;59.944;11.010;2022-12-18T13:36:47;2.90;74.50
39655;DHT22;25336;59.944;11.010;2022-12-18T13:41:48;2.80;74.40
39655;DHT22;25336;59.944;11.010;2022-12-18T13:44:37;2.80;74.40
39655;DHT22;25336;59.944;11.010;2022-12-18T13:47:32;3.30;74.90
39655;DHT22;25336;59.944;11.010;2022-12-18T13:49:57;2.70;74.60
39655;DHT22;25336;59.944;11.010;2022-12-18T13:52:28;2.70;74.60
39655;DHT22;25336;59.944;11.010;2022-12-18T13:54:59;2.60;74.60
39655;DHT22;25336;59.944;11.010;2022-12-18T13:57:35;2.60;74.60
39655;DHT22;25336;59.944;11.010;2022-12-18T14:00:24;2.50;74.50
39655;DHT22;25336;59.944;11.010;2022-12-18T14:02:51;2.50;74.50
39655;DHT22;25336;59.944;11.010;2022-12-18T14:07:49;3.60;75.10
39655;DHT22;25336;59.944;11.010;2022-12-18T14:10:15;3.40;74.80
39655;DHT22;25336;59.944;11.010;2022-12-18T14:12:45;3.30;74.80
39655;DHT22;25336;59.944;11.010;2022-12-18T14:15:33;2.20;74.20
39655;DHT22;25336;59.944;11.010;2022-12-18T14:18:21;2.20;74.40
39655;DHT22;25336;59.944;11.010;2022-12-18T14:20:53;2.20;74.60
39655;DHT22;25336;59.944;11.010;2022-12-18T14:23:40;2.10;74.50
39655;DHT22;25336;59.944;11.010;2022-12-18T14:26:25;2.10;74.70
39655;DHT22;25336;59.944;11.010;2022-12-18T14:28:53;2.00;74.70
39655;DHT22;25336;59.944;11.010;2022-12-18T14:31:22;2.00;74.70
39655;DHT22;25336;59.944;11.010;2022-12-18T14:33:49;1.90;74.60
39655;DHT22;25336;59.944;11.010;2022-12-18T14:36:20;2.30;74.90
39655;DHT22;25336;59.944;11.010;2022-12-18T14:38:52;1.90;74.60
39655;DHT22;25336;59.944;11.010;2022-12-18T14:41:19;1.90;74.60
39655;DHT22;25336;59.944;11.010;2022-12-18T14:43:47;1.80;74.90
39655;DHT22;25336;59.944;11.010;2022-12-18T14:48:59;1.70;74.40
39655;DHT22;25336;59.944;11.010;2022-12-18T14:51:27;1.70;74.40
39655;DHT22;25336;59.944;11.010;2022-12-18T14:53:56;1.60;74.50
39655;DHT22;25336;59.944;11.010;2022-12-18T14:56:36;1.60;74.60
39655;DHT22;25336;59.944;11.010;2022-12-18T14:59:17;1.60;74.60
39655;DHT22;25336;59.944;11.010;2022-12-18T15:04:40;1.50;74.90
39655;DHT22;25336;59.944;11.010;2022-12-18T15:07:24;1.70;75.40
39655;DHT22;25336;59.944;11.010;2022-12-18T15:10:12;1.40;75.10
39655;DHT22;25336;59.944;11.010;2022-12-18T15:12:46;1.50;75.30
39655;DHT22;25336;59.944;11.010;2022-12-18T15:21:07;1.30;75.40
39655;DHT22;25336;59.944;11.010;2022-12-18T15:26:10;1.30;75.30
39655;DHT22;25336;59.944;11.010;2022-12-18T15:28:43;1.30;75.30
39655;DHT22;25336;59.944;11.010;2022-12-18T15:33:39;1.20;75.60
39655;DHT22;25336;59.944;11.010;2022-12-18T15:36:09;1.20;75.40
39655;DHT22;25336;59.944;11.010;2022-12-18T15:38:35;2.10;76.00
39655;DHT22;25336;59.944;11.010;2022-12-18T15:41:02;1.10;75.50
39655;DHT22;25336;59.944;11.010;2022-12-18T15:43:27;1.10;75.40
39655;DHT22;25336;59.944;11.010;2022-12-18T15:46:14;1.10;75.40
39655;DHT22;25336;59.944;11.010;2022-12-18T15:48:42;1.00;75.40
39655;DHT22;25336;59.944;11.010;2022-12-18T15:51:32;2.60;76.30
39655;DHT22;25336;59.944;11.010;2022-12-18T15:54:00;1.00;75.60
39655;DHT22;25336;59.944;11.010;2022-12-18T15:56:26;1.00;75.40
39655;DHT22;25336;59.944;11.010;2022-12-18T15:59:16;0.90;75.30
39655;DHT22;25336;59.944;11.010;2022-12-18T16:01:46;0.90;75.10
39655;DHT22;25336;59.944;11.010;2022-12-18T16:04:13;0.90;75.40
39655;DHT22;25336;59.944;11.010;2022-12-18T16:06:39;0.90;74.80
39655;DHT22;25336;59.944;11.010;2022-12-18T16:09:06;0.80;74.40
39655;DHT22;25336;59.944;11.010;2022-12-18T16:11:33;0.80;74.10
39655;DHT22;25336;59.944;11.010;2022-12-18T16:14:25;0.70;73.80
39655;DHT22;25336;59.944;11.010;2022-12-18T16:16:59;0.70;73.70
39655;DHT22;25336;59.944;11.010;2022-12-18T16:19:26;0.50;73.50
39655;DHT22;25336;59.944;11.010;2022-12-18T16:21:54;0.50;73.60
39655;DHT22;25336;59.944;11.010;2022-12-18T16:24:22;2.40;74.90
39655;DHT22;25336;59.944;11.010;2022-12-18T16:26:49;0.40;73.80
39655;DHT22;25336;59.944;11.010;2022-12-18T16:29:16;0.30;73.90
39655;DHT22;25336;59.944;11.010;2022-12-18T16:31:42;0.30;74.10
39655;DHT22;25336;59.944;11.010;2022-12-18T16:34:20;0.30;74.10
39655;DHT22;25336;59.944;11.010;2022-12-18T16:36:51;0.30;74.40
39655;DHT22;25336;59.944;11.010;2022-12-18T16:39:19;0.30;74.60
39655;DHT22;25336;59.944;11.010;2022-12-18T16:41:45;0.30;74.70
39655;DHT22;25336;59.944;11.010;2022-12-18T16:44:11;2.00;75.90
39655;DHT22;25336;59.944;11.010;2022-12-18T16:46:37;0.20;74.80
39655;DHT22;25336;59.944;11.010;2022-12-18T16:49:04;0.20;74.80
39655;DHT22;25336;59.944;11.010;2022-12-18T16:51:30;0.20;74.90
39655;DHT22;25336;59.944;11.010;2022-12-18T16:53:56;0.20;74.90
39655;DHT22;25336;59.944;11.010;2022-12-18T16:56:23;-0.70;74.30
39655;DHT22;25336;59.944;11.010;2022-12-18T16:58:54;0.10;74.80
39655;DHT22;25336;59.944;11.010;2022-12-18T17:01:21;0.10;74.90
39655;DHT22;25336;59.944;11.010;2022-12-18T17:04:03;1.20;75.70
39655;DHT22;25336;59.944;11.010;2022-12-18T17:06:31;0.10;75.00
39655;DHT22;25336;59.944;11.010;2022-12-18T17:08:58;0.00;74.80
39655;DHT22;25336;59.944;11.010;2022-12-18T17:11:25;0.00;74.80
39655;DHT22;25336;59.944;11.010;2022-12-18T17:13:51;1.70;75.80
39655;DHT22;25336;59.944;11.010;2022-12-18T17:16:17;0.00;74.60
39655;DHT22;25336;59.944;11.010;2022-12-18T17:18:43;-0.70;74.10
39655;DHT22;25336;59.944;11.010;2022-12-18T17:21:09;0.20;74.50
39655;DHT22;25336;59.944;11.010;2022-12-18T17:23:36;-0.10;74.10
39655;DHT22;25336;59.944;11.010;2022-12-18T17:26:03;-0.20;73.80
39655;DHT22;25336;59.944;11.010;2022-12-18T17:28:32;-0.10;74.00
39655;DHT22;25336;59.944;11.010;2022-12-18T17:30:58;-0.20;74.10
39655;DHT22;25336;59.944;11.010;2022-12-18T17:33:24;-0.20;74.30
39655;DHT22;25336;59.944;11.010;2022-12-18T17:35:49;-0.20;74.60
39655;DHT22;25336;59.944;11.010;2022-12-18T17:38:16;-0.20;74.60
39655;DHT22;25336;59.944;11.010;2022-12-18T17:40:41;0.30;75.00
39655;DHT22;25336;59.944;11.010;2022-12-18T17:43:08;-0.20;74.70